Weather at Marseille Provence Airport

Public forecast

Using degrees Celsius for public forecast. Weather courtesy of forecast.io.

Current aviation weather report (METAR) for Marseille Provence Airport

Retrieved 2020/11/28 04:30 UTC (4 minutes ago):

LFML 280430Z AUTO 06014KT CAVOK 16/09 Q1010 TEMPO 09020G35KT RA

Aviation forecast (TAF) for Marseille Provence Airport

Retrieved 2020-11-28 03:26 UTC (1 hour ago):

TAF LFML 280200Z 2803/2909 09015G25KT CAVOK TX17/2815Z TN11/2805Z PROB40 TEMPO 2804/2809 RA BKN065 TEMPO 2805/2817 09020G35KT PROB40 TEMPO 2813/2816 RA OVC070 BECMG 2818/2820 36006KT